sensor_id;sensor_type;location;lat;lon;timestamp;temperature;humidity
60495;DHT22;46342;49.046;11.920;2023-05-07T00:01:53;15.30;51.70
60495;DHT22;46342;49.046;11.920;2023-05-07T00:04:18;15.20;51.60
60495;DHT22;46342;49.046;11.920;2023-05-07T00:06:44;15.20;51.80
60495;DHT22;46342;49.046;11.920;2023-05-07T00:09:10;15.20;51.80
60495;DHT22;46342;49.046;11.920;2023-05-07T00:11:36;15.10;51.90
60495;DHT22;46342;49.046;11.920;2023-05-07T00:14:01;15.10;51.80
60495;DHT22;46342;49.046;11.920;2023-05-07T00:16:27;15.00;51.80
60495;DHT22;46342;49.046;11.920;2023-05-07T00:18:53;15.10;51.90
60495;DHT22;46342;49.046;11.920;2023-05-07T00:21:18;15.00;51.90
60495;DHT22;46342;49.046;11.920;2023-05-07T00:23:44;15.00;52.00
60495;DHT22;46342;49.046;11.920;2023-05-07T00:26:10;14.90;51.90
60495;DHT22;46342;49.046;11.920;2023-05-07T00:28:35;14.90;52.00
60495;DHT22;46342;49.046;11.920;2023-05-07T00:31:01;14.80;51.90
60495;DHT22;46342;49.046;11.920;2023-05-07T00:33:26;14.90;52.10
60495;DHT22;46342;49.046;11.920;2023-05-07T00:35:52;14.80;52.70
60495;DHT22;46342;49.046;11.920;2023-05-07T00:38:19;14.80;52.20
60495;DHT22;46342;49.046;11.920;2023-05-07T00:40:45;14.70;52.10
60495;DHT22;46342;49.046;11.920;2023-05-07T00:43:11;14.70;52.20
60495;DHT22;46342;49.046;11.920;2023-05-07T00:45:38;14.60;52.20
60495;DHT22;46342;49.046;11.920;2023-05-07T00:48:04;14.60;52.30
60495;DHT22;46342;49.046;11.920;2023-05-07T00:50:30;14.60;52.30
60495;DHT22;46342;49.046;11.920;2023-05-07T00:52:56;14.60;52.40
60495;DHT22;46342;49.046;11.920;2023-05-07T00:55:23;14.50;52.30
60495;DHT22;46342;49.046;11.920;2023-05-07T00:57:50;14.50;52.50
60495;DHT22;46342;49.046;11.920;2023-05-07T01:00:16;14.40;52.40
60495;DHT22;46342;49.046;11.920;2023-05-07T01:02:42;14.40;52.40
60495;DHT22;46342;49.046;11.920;2023-05-07T01:05:11;14.40;53.20
60495;DHT22;46342;49.046;11.920;2023-05-07T01:07:38;14.30;52.70
60495;DHT22;46342;49.046;11.920;2023-05-07T01:10:06;14.30;52.60
60495;DHT22;46342;49.046;11.920;2023-05-07T01:12:33;14.30;52.80
60495;DHT22;46342;49.046;11.920;2023-05-07T01:14:59;14.30;52.70
60495;DHT22;46342;49.046;11.920;2023-05-07T01:17:25;14.20;52.60
60495;DHT22;46342;49.046;11.920;2023-05-07T01:19:50;14.20;52.70
60495;DHT22;46342;49.046;11.920;2023-05-07T01:22:47;14.20;52.70
60495;DHT22;46342;49.046;11.920;2023-05-07T01:25:12;14.20;53.50
60495;DHT22;46342;49.046;11.920;2023-05-07T01:27:38;14.10;52.70
60495;DHT22;46342;49.046;11.920;2023-05-07T01:30:05;14.10;52.80
60495;DHT22;46342;49.046;11.920;2023-05-07T01:32:48;14.10;52.90
60495;DHT22;46342;49.046;11.920;2023-05-07T01:35:19;14.10;53.30
60495;DHT22;46342;49.046;11.920;2023-05-07T01:37:48;14.10;53.50
60495;DHT22;46342;49.046;11.920;2023-05-07T01:40:14;14.00;53.10
60495;DHT22;46342;49.046;11.920;2023-05-07T01:42:42;14.00;53.20
60495;DHT22;46342;49.046;11.920;2023-05-07T01:45:08;14.00;53.40
60495;DHT22;46342;49.046;11.920;2023-05-07T01:47:36;14.00;53.30
60495;DHT22;46342;49.046;11.920;2023-05-07T01:50:03;14.00;53.50
60495;DHT22;46342;49.046;11.920;2023-05-07T01:52:29;14.00;53.50
60495;DHT22;46342;49.046;11.920;2023-05-07T01:54:55;14.00;53.60
60495;DHT22;46342;49.046;11.920;2023-05-07T01:57:21;14.00;53.50
60495;DHT22;46342;49.046;11.920;2023-05-07T01:59:46;14.00;53.50
60495;DHT22;46342;49.046;11.920;2023-05-07T02:02:12;14.00;53.60
60495;DHT22;46342;49.046;11.920;2023-05-07T02:04:37;14.00;54.30
60495;DHT22;46342;49.046;11.920;2023-05-07T02:07:03;14.00;53.80
60495;DHT22;46342;49.046;11.920;2023-05-07T02:09:28;14.00;53.80
60495;DHT22;46342;49.046;11.920;2023-05-07T02:11:54;14.00;53.80
60495;DHT22;46342;49.046;11.920;2023-05-07T02:14:19;13.90;53.80
60495;DHT22;46342;49.046;11.920;2023-05-07T02:16:45;14.00;53.90
60495;DHT22;46342;49.046;11.920;2023-05-07T02:19:11;14.00;53.90
60495;DHT22;46342;49.046;11.920;2023-05-07T02:21:37;14.00;54.00
60495;DHT22;46342;49.046;11.920;2023-05-07T02:24:02;14.00;54.00
60495;DHT22;46342;49.046;11.920;2023-05-07T02:26:28;14.00;54.10
60495;DHT22;46342;49.046;11.920;2023-05-07T02:28:53;14.00;54.10
60495;DHT22;46342;49.046;11.920;2023-05-07T02:31:19;14.10;54.30
60495;DHT22;46342;49.046;11.920;2023-05-07T02:33:44;14.00;54.30
60495;DHT22;46342;49.046;11.920;2023-05-07T02:36:11;14.00;54.30
60495;DHT22;46342;49.046;11.920;2023-05-07T02:38:37;14.00;54.50
60495;DHT22;46342;49.046;11.920;2023-05-07T02:41:03;14.00;54.50
60495;DHT22;46342;49.046;11.920;2023-05-07T02:43:29;14.00;54.50
60495;DHT22;46342;49.046;11.920;2023-05-07T02:46:04;14.00;54.50
60495;DHT22;46342;49.046;11.920;2023-05-07T02:48:30;14.10;55.60
60495;DHT22;46342;49.046;11.920;2023-05-07T02:50:57;14.10;54.60
60495;DHT22;46342;49.046;11.920;2023-05-07T02:53:22;14.10;54.70
60495;DHT22;46342;49.046;11.920;2023-05-07T02:55:50;14.10;54.60
60495;DHT22;46342;49.046;11.920;2023-05-07T02:58:16;14.10;54.60
60495;DHT22;46342;49.046;11.920;2023-05-07T03:00:41;14.10;55.10
60495;DHT22;46342;49.046;11.920;2023-05-07T03:03:07;14.10;54.50
60495;DHT22;46342;49.046;11.920;2023-05-07T03:05:32;14.10;54.50
60495;DHT22;46342;49.046;11.920;2023-05-07T03:07:58;14.10;54.50
60495;DHT22;46342;49.046;11.920;2023-05-07T03:10:24;14.10;54.50
60495;DHT22;46342;49.046;11.920;2023-05-07T03:12:49;14.10;54.60
60495;DHT22;46342;49.046;11.920;2023-05-07T03:15:15;14.20;54.70
60495;DHT22;46342;49.046;11.920;2023-05-07T03:17:41;14.00;54.50
60495;DHT22;46342;49.046;11.920;2023-05-07T03:20:07;14.00;54.50
60495;DHT22;46342;49.046;11.920;2023-05-07T03:22:32;14.00;54.50
60495;DHT22;46342;49.046;11.920;2023-05-07T03:24:58;14.00;54.60
60495;DHT22;46342;49.046;11.920;2023-05-07T03:27:24;14.00;54.60
60495;DHT22;46342;49.046;11.920;2023-05-07T03:29:49;14.00;54.70
60495;DHT22;46342;49.046;11.920;2023-05-07T03:32:15;13.90;54.60
60495;DHT22;46342;49.046;11.920;2023-05-07T03:34:40;13.90;54.60
60495;DHT22;46342;49.046;11.920;2023-05-07T03:37:06;13.90;54.70
60495;DHT22;46342;49.046;11.920;2023-05-07T03:39:31;13.90;54.70
60495;DHT22;46342;49.046;11.920;2023-05-07T03:41:57;13.90;54.80
60495;DHT22;46342;49.046;11.920;2023-05-07T03:44:23;13.90;54.90
60495;DHT22;46342;49.046;11.920;2023-05-07T03:46:49;13.80;54.80
60495;DHT22;46342;49.046;11.920;2023-05-07T03:49:14;13.80;54.80
60495;DHT22;46342;49.046;11.920;2023-05-07T03:51:40;13.80;54.90
60495;DHT22;46342;49.046;11.920;2023-05-07T03:54:05;13.80;55.00
60495;DHT22;46342;49.046;11.920;2023-05-07T03:56:31;13.80;55.20
60495;DHT22;46342;49.046;11.920;2023-05-07T03:58:56;13.80;55.10
60495;DHT22;46342;49.046;11.920;2023-05-07T04:01:22;13.80;55.10
60495;DHT22;46342;49.046;11.920;2023-05-07T04:03:47;13.80;55.10
60495;DHT22;46342;49.046;11.920;2023-05-07T04:06:15;13.80;55.20
60495;DHT22;46342;49.046;11.920;2023-05-07T04:08:40;13.80;55.30
60495;DHT22;46342;49.046;11.920;2023-05-07T04:11:06;13.70;55.20
60495;DHT22;46342;49.046;11.920;2023-05-07T04:13:31;13.80;55.40
60495;DHT22;46342;49.046;11.920;2023-05-07T04:15:57;13.80;55.40
60495;DHT22;46342;49.046;11.920;2023-05-07T04:18:23;13.80;55.40
60495;DHT22;46342;49.046;11.920;2023-05-07T04:20:48;13.70;55.40
60495;DHT22;46342;49.046;11.920;2023-05-07T04:23:15;13.80;55.50
60495;DHT22;46342;49.046;11.920;2023-05-07T04:25:40;13.70;55.40
60495;DHT22;46342;49.046;11.920;2023-05-07T04:28:07;13.80;55.60
60495;DHT22;46342;49.046;11.920;2023-05-07T04:30:32;13.80;55.70
60495;DHT22;46342;49.046;11.920;2023-05-07T04:32:58;13.80;55.70
60495;DHT22;46342;49.046;11.920;2023-05-07T04:35:23;13.80;55.70
60495;DHT22;46342;49.046;11.920;2023-05-07T04:37:49;13.80;55.80
60495;DHT22;46342;49.046;11.920;2023-05-07T04:40:15;13.90;56.00
60495;DHT22;46342;49.046;11.920;2023-05-07T04:42:41;13.80;56.10
60495;DHT22;46342;49.046;11.920;2023-05-07T04:45:07;13.80;56.10
60495;DHT22;46342;49.046;11.920;2023-05-07T04:47:34;13.90;56.30
60495;DHT22;46342;49.046;11.920;2023-05-07T04:49:59;13.90;56.20
60495;DHT22;46342;49.046;11.920;2023-05-07T04:52:25;13.90;56.30
60495;DHT22;46342;49.046;11.920;2023-05-07T04:54:50;13.90;56.30
60495;DHT22;46342;49.046;11.920;2023-05-07T04:57:16;14.00;56.50
60495;DHT22;46342;49.046;11.920;2023-05-07T04:59:43;14.00;56.60
60495;DHT22;46342;49.046;11.920;2023-05-07T05:02:10;14.10;56.70
60495;DHT22;46342;49.046;11.920;2023-05-07T05:04:35;14.10;57.00
60495;DHT22;46342;49.046;11.920;2023-05-07T05:07:02;14.20;56.90
60495;DHT22;46342;49.046;11.920;2023-05-07T05:09:29;14.30;57.20
60495;DHT22;46342;49.046;11.920;2023-05-07T05:11:55;14.30;57.10
60495;DHT22;46342;49.046;11.920;2023-05-07T05:14:20;14.40;57.20
60495;DHT22;46342;49.046;11.920;2023-05-07T05:16:46;14.40;57.10
60495;DHT22;46342;49.046;11.920;2023-05-07T05:19:11;14.50;57.10
60495;DHT22;46342;49.046;11.920;2023-05-07T05:21:37;14.50;57.00
60495;DHT22;46342;49.046;11.920;2023-05-07T05:24:02;14.60;57.10
60495;DHT22;46342;49.046;11.920;2023-05-07T05:26:28;14.60;57.10
60495;DHT22;46342;49.046;11.920;2023-05-07T05:28:54;14.70;57.20
60495;DHT22;46342;49.046;11.920;2023-05-07T05:31:19;14.70;57.20
60495;DHT22;46342;49.046;11.920;2023-05-07T05:33:45;14.80;57.20
60495;DHT22;46342;49.046;11.920;2023-05-07T05:36:10;14.90;57.30
60495;DHT22;46342;49.046;11.920;2023-05-07T05:38:37;14.90;57.30
60495;DHT22;46342;49.046;11.920;2023-05-07T05:41:03;15.00;57.40
60495;DHT22;46342;49.046;11.920;2023-05-07T05:43:28;15.00;57.40
60495;DHT22;46342;49.046;11.920;2023-05-07T05:45:55;15.10;57.40
60495;DHT22;46342;49.046;11.920;2023-05-07T05:48:21;15.10;57.60
60495;DHT22;46342;49.046;11.920;2023-05-07T05:50:47;15.20;57.50
60495;DHT22;46342;49.046;11.920;2023-05-07T05:53:12;15.30;57.40
60495;DHT22;46342;49.046;11.920;2023-05-07T05:55:38;15.40;57.50
60495;DHT22;46342;49.046;11.920;2023-05-07T05:58:03;15.40;58.10
60495;DHT22;46342;49.046;11.920;2023-05-07T06:00:29;15.40;57.40
60495;DHT22;46342;49.046;11.920;2023-05-07T06:02:55;15.50;57.40
60495;DHT22;46342;49.046;11.920;2023-05-07T06:05:20;15.60;57.40
60495;DHT22;46342;49.046;11.920;2023-05-07T06:07:46;15.60;57.40
60495;DHT22;46342;49.046;11.920;2023-05-07T06:10:12;15.70;57.50
60495;DHT22;46342;49.046;11.920;2023-05-07T06:12:37;15.70;57.60
60495;DHT22;46342;49.046;11.920;2023-05-07T06:15:03;15.80;57.70
60495;DHT22;46342;49.046;11.920;2023-05-07T06:17:29;15.90;57.80
60495;DHT22;46342;49.046;11.920;2023-05-07T06:19:55;15.90;57.70
60495;DHT22;46342;49.046;11.920;2023-05-07T06:22:21;16.10;57.80
60495;DHT22;46342;49.046;11.920;2023-05-07T06:24:47;16.10;57.70
60495;DHT22;46342;49.046;11.920;2023-05-07T06:27:12;16.20;57.60
60495;DHT22;46342;49.046;11.920;2023-05-07T06:29:38;16.30;57.70
60495;DHT22;46342;49.046;11.920;2023-05-07T06:32:09;16.30;57.60
60495;DHT22;46342;49.046;11.920;2023-05-07T06:34:35;16.40;57.70
60495;DHT22;46342;49.046;11.920;2023-05-07T06:37:02;16.50;57.50
60495;DHT22;46342;49.046;11.920;2023-05-07T06:39:27;16.50;57.40
60495;DHT22;46342;49.046;11.920;2023-05-07T06:41:53;16.60;57.30
60495;DHT22;46342;49.046;11.920;2023-05-07T06:44:18;16.70;57.40
60495;DHT22;46342;49.046;11.920;2023-05-07T06:46:44;16.80;57.40
60495;DHT22;46342;49.046;11.920;2023-05-07T06:49:11;16.80;57.40
60495;DHT22;46342;49.046;11.920;2023-05-07T06:51:37;16.90;57.50
60495;DHT22;46342;49.046;11.920;2023-05-07T06:54:02;16.90;57.40
60495;DHT22;46342;49.046;11.920;2023-05-07T06:56:30;17.00;57.20
60495;DHT22;46342;49.046;11.920;2023-05-07T06:58:56;17.10;57.30
60495;DHT22;46342;49.046;11.920;2023-05-07T07:01:21;17.10;57.20
60495;DHT22;46342;49.046;11.920;2023-05-07T07:03:47;17.20;57.20
60495;DHT22;46342;49.046;11.920;2023-05-07T07:06:13;17.30;57.30
60495;DHT22;46342;49.046;11.920;2023-05-07T07:08:38;17.30;57.20
60495;DHT22;46342;49.046;11.920;2023-05-07T07:11:05;17.30;57.20
60495;DHT22;46342;49.046;11.920;2023-05-07T07:13:30;17.50;57.30
60495;DHT22;46342;49.046;11.920;2023-05-07T07:15:56;17.50;57.30
60495;DHT22;46342;49.046;11.920;2023-05-07T07:18:21;17.60;57.40
60495;DHT22;46342;49.046;11.920;2023-05-07T07:20:47;17.70;57.40
60495;DHT22;46342;49.046;11.920;2023-05-07T07:23:13;17.80;57.30
60495;DHT22;46342;49.046;11.920;2023-05-07T07:25:39;17.90;57.20
60495;DHT22;46342;49.046;11.920;2023-05-07T07:28:05;18.00;57.20
60495;DHT22;46342;49.046;11.920;2023-05-07T07:30:31;18.00;57.20
60495;DHT22;46342;49.046;11.920;2023-05-07T07:32:56;18.10;57.10
60495;DHT22;46342;49.046;11.920;2023-05-07T07:35:31;18.20;57.20
60495;DHT22;46342;49.046;11.920;2023-05-07T07:37:56;18.20;57.10
60495;DHT22;46342;49.046;11.920;2023-05-07T07:40:22;18.30;57.20
60495;DHT22;46342;49.046;11.920;2023-05-07T07:42:48;18.40;57.10
60495;DHT22;46342;49.046;11.920;2023-05-07T07:45:13;18.50;57.10
60495;DHT22;46342;49.046;11.920;2023-05-07T07:47:40;18.60;56.90
60495;DHT22;46342;49.046;11.920;2023-05-07T07:50:06;18.70;56.90
60495;DHT22;46342;49.046;11.920;2023-05-07T07:52:32;18.80;56.80
60495;DHT22;46342;49.046;11.920;2023-05-07T07:54:58;18.90;56.70
60495;DHT22;46342;49.046;11.920;2023-05-07T07:57:23;19.00;56.50
60495;DHT22;46342;49.046;11.920;2023-05-07T07:59:49;19.00;56.40
60495;DHT22;46342;49.046;11.920;2023-05-07T08:02:16;19.10;56.20
60495;DHT22;46342;49.046;11.920;2023-05-07T08:04:42;19.20;56.20
60495;DHT22;46342;49.046;11.920;2023-05-07T08:07:09;19.20;56.10
60495;DHT22;46342;49.046;11.920;2023-05-07T08:09:35;19.30;56.10
60495;DHT22;46342;49.046;11.920;2023-05-07T08:12:01;19.40;56.00
60495;DHT22;46342;49.046;11.920;2023-05-07T08:14:26;19.40;56.00
60495;DHT22;46342;49.046;11.920;2023-05-07T08:16:54;19.50;55.90
60495;DHT22;46342;49.046;11.920;2023-05-07T08:19:20;19.60;55.70
60495;DHT22;46342;49.046;11.920;2023-05-07T08:21:46;19.60;55.80
60495;DHT22;46342;49.046;11.920;2023-05-07T08:24:13;19.70;56.00
60495;DHT22;46342;49.046;11.920;2023-05-07T08:26:39;19.80;56.00
60495;DHT22;46342;49.046;11.920;2023-05-07T08:29:05;19.90;56.10
60495;DHT22;46342;49.046;11.920;2023-05-07T08:31:31;19.90;56.00
60495;DHT22;46342;49.046;11.920;2023-05-07T08:33:57;20.10;56.10
60495;DHT22;46342;49.046;11.920;2023-05-07T08:36:23;20.20;56.10
60495;DHT22;46342;49.046;11.920;2023-05-07T08:38:49;20.20;55.90
60495;DHT22;46342;49.046;11.920;2023-05-07T08:41:15;20.40;55.80
60495;DHT22;46342;49.046;11.920;2023-05-07T08:43:41;20.50;55.70
60495;DHT22;46342;49.046;11.920;2023-05-07T08:46:09;20.60;55.80
60495;DHT22;46342;49.046;11.920;2023-05-07T08:48:35;20.70;55.70
60495;DHT22;46342;49.046;11.920;2023-05-07T08:51:01;20.70;55.60
60495;DHT22;46342;49.046;11.920;2023-05-07T08:53:27;20.90;55.50
60495;DHT22;46342;49.046;11.920;2023-05-07T08:55:53;20.90;55.20
60495;DHT22;46342;49.046;11.920;2023-05-07T08:58:18;21.00;55.00
60495;DHT22;46342;49.046;11.920;2023-05-07T09:00:44;21.00;55.00
60495;DHT22;46342;49.046;11.920;2023-05-07T09:03:10;21.10;55.00
60495;DHT22;46342;49.046;11.920;2023-05-07T09:05:38;21.20;55.00
60495;DHT22;46342;49.046;11.920;2023-05-07T09:08:03;21.40;54.90
60495;DHT22;46342;49.046;11.920;2023-05-07T09:10:29;21.40;54.70
60495;DHT22;46342;49.046;11.920;2023-05-07T09:12:57;21.40;54.50
60495;DHT22;46342;49.046;11.920;2023-05-07T09:15:23;21.50;55.10
60495;DHT22;46342;49.046;11.920;2023-05-07T09:17:48;21.50;54.40
60495;DHT22;46342;49.046;11.920;2023-05-07T09:20:14;21.60;54.40
60495;DHT22;46342;49.046;11.920;2023-05-07T09:22:41;21.70;54.30
60495;DHT22;46342;49.046;11.920;2023-05-07T09:25:07;21.70;54.20
60495;DHT22;46342;49.046;11.920;2023-05-07T09:27:33;21.80;54.40
60495;DHT22;46342;49.046;11.920;2023-05-07T09:29:59;21.80;54.20
60495;DHT22;46342;49.046;11.920;2023-05-07T09:32:25;22.00;54.50
60495;DHT22;46342;49.046;11.920;2023-05-07T09:34:51;22.00;54.70
60495;DHT22;46342;49.046;11.920;2023-05-07T09:37:16;22.10;54.70
60495;DHT22;46342;49.046;11.920;2023-05-07T09:39:44;22.20;54.70
60495;DHT22;46342;49.046;11.920;2023-05-07T09:42:10;22.40;54.50
60495;DHT22;46342;49.046;11.920;2023-05-07T09:44:37;22.50;54.50
60495;DHT22;46342;49.046;11.920;2023-05-07T09:47:05;22.60;54.40
60495;DHT22;46342;49.046;11.920;2023-05-07T09:49:34;22.80;54.10
60495;DHT22;46342;49.046;11.920;2023-05-07T09:52:01;22.90;53.80
60495;DHT22;46342;49.046;11.920;2023-05-07T09:54:27;23.00;53.80
60495;DHT22;46342;49.046;11.920;2023-05-07T09:56:57;23.10;53.70
60495;DHT22;46342;49.046;11.920;2023-05-07T09:59:24;23.10;53.30
60495;DHT22;46342;49.046;11.920;2023-05-07T10:01:51;23.20;53.00
60495;DHT22;46342;49.046;11.920;2023-05-07T10:04:17;23.20;52.80
60495;DHT22;46342;49.046;11.920;2023-05-07T10:06:44;23.20;52.90
60495;DHT22;46342;49.046;11.920;2023-05-07T10:09:11;23.30;53.00
60495;DHT22;46342;49.046;11.920;2023-05-07T10:11:37;23.30;52.90
60495;DHT22;46342;49.046;11.920;2023-05-07T10:14:04;23.40;52.80
60495;DHT22;46342;49.046;11.920;2023-05-07T10:16:35;23.50;53.40
60495;DHT22;46342;49.046;11.920;2023-05-07T10:19:06;23.60;52.60
60495;DHT22;46342;49.046;11.920;2023-05-07T10:21:39;23.70;52.40
60495;DHT22;46342;49.046;11.920;2023-05-07T10:24:20;23.80;51.90
60495;DHT22;46342;49.046;11.920;2023-05-07T10:26:49;23.80;52.10
60495;DHT22;46342;49.046;11.920;2023-05-07T10:34:41;24.00;51.80
60495;DHT22;46342;49.046;11.920;2023-05-07T10:37:09;24.20;52.80
60495;DHT22;46342;49.046;11.920;2023-05-07T10:39:35;24.20;53.10
60495;DHT22;46342;49.046;11.920;2023-05-07T10:42:09;24.30;52.30
60495;DHT22;46342;49.046;11.920;2023-05-07T10:44:35;24.50;51.40
60495;DHT22;46342;49.046;11.920;2023-05-07T10:47:13;24.50;51.90
60495;DHT22;46342;49.046;11.920;2023-05-07T10:52:18;24.70;51.70
60495;DHT22;46342;49.046;11.920;2023-05-07T10:54:44;24.80;51.30
60495;DHT22;46342;49.046;11.920;2023-05-07T10:57:33;25.00;51.80
60495;DHT22;46342;49.046;11.920;2023-05-07T11:00:01;25.00;50.60
60495;DHT22;46342;49.046;11.920;2023-05-07T11:05:30;25.10;50.20
60495;DHT22;46342;49.046;11.920;2023-05-07T11:08:00;25.20;51.00
60495;DHT22;46342;49.046;11.920;2023-05-07T11:10:48;25.30;51.50
60495;DHT22;46342;49.046;11.920;2023-05-07T11:13:15;25.40;50.30
60495;DHT22;46342;49.046;11.920;2023-05-07T11:15:46;25.50;51.10
60495;DHT22;46342;49.046;11.920;2023-05-07T11:18:15;25.60;50.90
60495;DHT22;46342;49.046;11.920;2023-05-07T11:20:55;25.80;50.80
60495;DHT22;46342;49.046;11.920;2023-05-07T11:26:07;26.00;49.30
60495;DHT22;46342;49.046;11.920;2023-05-07T11:28:40;26.10;50.30
60495;DHT22;46342;49.046;11.920;2023-05-07T11:31:07;26.30;49.60
60495;DHT22;46342;49.046;11.920;2023-05-07T11:33:33;26.40;50.20
60495;DHT22;46342;49.046;11.920;2023-05-07T11:36:00;26.50;49.90
60495;DHT22;46342;49.046;11.920;2023-05-07T11:38:25;26.60;49.80
60495;DHT22;46342;49.046;11.920;2023-05-07T11:40:56;26.70;49.60
60495;DHT22;46342;49.046;11.920;2023-05-07T11:43:21;26.90;49.90
60495;DHT22;46342;49.046;11.920;2023-05-07T11:45:48;27.00;49.10
60495;DHT22;46342;49.046;11.920;2023-05-07T11:48:15;27.00;48.80
60495;DHT22;46342;49.046;11.920;2023-05-07T11:50:51;27.10;48.80
60495;DHT22;46342;49.046;11.920;2023-05-07T11:53:18;27.30;47.80
60495;DHT22;46342;49.046;11.920;2023-05-07T11:55:44;27.30;48.20
60495;DHT22;46342;49.046;11.920;2023-05-07T11:58:11;27.30;47.70
60495;DHT22;46342;49.046;11.920;2023-05-07T12:00:37;27.40;47.60
60495;DHT22;46342;49.046;11.920;2023-05-07T12:03:06;27.40;47.20
60495;DHT22;46342;49.046;11.920;2023-05-07T12:05:31;27.40;46.70
60495;DHT22;46342;49.046;11.920;2023-05-07T12:07:57;27.40;47.10
60495;DHT22;46342;49.046;11.920;2023-05-07T12:10:23;27.50;46.90
60495;DHT22;46342;49.046;11.920;2023-05-07T12:12:50;27.50;46.90
60495;DHT22;46342;49.046;11.920;2023-05-07T12:15:16;27.50;46.80
60495;DHT22;46342;49.046;11.920;2023-05-07T12:17:42;27.50;46.60
60495;DHT22;46342;49.046;11.920;2023-05-07T12:20:09;27.50;46.60
60495;DHT22;46342;49.046;11.920;2023-05-07T12:22:36;27.50;46.50
60495;DHT22;46342;49.046;11.920;2023-05-07T12:25:01;27.50;46.50
60495;DHT22;46342;49.046;11.920;2023-05-07T12:27:28;27.60;46.20
60495;DHT22;46342;49.046;11.920;2023-05-07T12:29:54;27.50;46.20
60495;DHT22;46342;49.046;11.920;2023-05-07T12:32:21;27.60;46.10
60495;DHT22;46342;49.046;11.920;2023-05-07T12:34:49;27.60;45.40
60495;DHT22;46342;49.046;11.920;2023-05-07T12:37:15;27.60;45.10
60495;DHT22;46342;49.046;11.920;2023-05-07T12:40:06;27.60;45.60
60495;DHT22;46342;49.046;11.920;2023-05-07T12:42:35;27.60;45.40
60495;DHT22;46342;49.046;11.920;2023-05-07T12:45:11;27.50;45.20
60495;DHT22;46342;49.046;11.920;2023-05-07T12:47:37;27.50;44.20
60495;DHT22;46342;49.046;11.920;2023-05-07T12:50:05;27.40;44.90
60495;DHT22;46342;49.046;11.920;2023-05-07T12:52:31;27.40;44.60
60495;DHT22;46342;49.046;11.920;2023-05-07T12:55:07;27.30;45.00
60495;DHT22;46342;49.046;11.920;2023-05-07T12:57:45;27.30;44.10
60495;DHT22;46342;49.046;11.920;2023-05-07T13:00:11;27.20;43.90
60495;DHT22;46342;49.046;11.920;2023-05-07T13:02:38;27.10;44.60
60495;DHT22;46342;49.046;11.920;2023-05-07T13:05:04;27.00;44.40
60495;DHT22;46342;49.046;11.920;2023-05-07T13:07:30;27.00;44.60
60495;DHT22;46342;49.046;11.920;2023-05-07T13:09:55;27.00;44.40
60495;DHT22;46342;49.046;11.920;2023-05-07T13:12:21;27.00;44.60
60495;DHT22;46342;49.046;11.920;2023-05-07T13:14:46;26.90;44.40
60495;DHT22;46342;49.046;11.920;2023-05-07T13:17:12;27.00;44.70
60495;DHT22;46342;49.046;11.920;2023-05-07T13:19:38;27.00;44.60
60495;DHT22;46342;49.046;11.920;2023-05-07T13:22:03;27.00;44.40
60495;DHT22;46342;49.046;11.920;2023-05-07T13:24:29;27.00;44.00
60495;DHT22;46342;49.046;11.920;2023-05-07T13:26:54;27.00;44.00
60495;DHT22;46342;49.046;11.920;2023-05-07T13:29:20;27.00;43.90
60495;DHT22;46342;49.046;11.920;2023-05-07T13:31:50;27.00;43.70
60495;DHT22;46342;49.046;11.920;2023-05-07T13:34:16;27.00;43.80
60495;DHT22;46342;49.046;11.920;2023-05-07T13:36:41;27.00;43.80
60495;DHT22;46342;49.046;11.920;2023-05-07T13:39:07;27.00;43.70
60495;DHT22;46342;49.046;11.920;2023-05-07T13:41:34;27.00;43.60
60495;DHT22;46342;49.046;11.920;2023-05-07T13:43:59;27.00;43.60
60495;DHT22;46342;49.046;11.920;2023-05-07T13:46:25;27.00;43.20
60495;DHT22;46342;49.046;11.920;2023-05-07T13:48:51;27.00;43.20
60495;DHT22;46342;49.046;11.920;2023-05-07T13:51:16;27.00;43.10
60495;DHT22;46342;49.046;11.920;2023-05-07T13:53:42;27.00;43.00
60495;DHT22;46342;49.046;11.920;2023-05-07T13:56:07;27.10;43.20
60495;DHT22;46342;49.046;11.920;2023-05-07T13:58:33;27.10;43.00
60495;DHT22;46342;49.046;11.920;2023-05-07T14:00:59;27.10;42.90
60495;DHT22;46342;49.046;11.920;2023-05-07T14:03:24;27.20;42.80
60495;DHT22;46342;49.046;11.920;2023-05-07T14:05:50;27.20;42.80
60495;DHT22;46342;49.046;11.920;2023-05-07T14:08:15;27.20;43.00
60495;DHT22;46342;49.046;11.920;2023-05-07T14:10:43;27.30;42.50
60495;DHT22;46342;49.046;11.920;2023-05-07T14:13:09;27.40;42.90
60495;DHT22;46342;49.046;11.920;2023-05-07T14:15:35;27.40;42.80
60495;DHT22;46342;49.046;11.920;2023-05-07T14:18:02;27.50;42.90
60495;DHT22;46342;49.046;11.920;2023-05-07T14:20:27;27.50;42.80
60495;DHT22;46342;49.046;11.920;2023-05-07T14:22:53;27.50;42.70
60495;DHT22;46342;49.046;11.920;2023-05-07T14:25:18;27.50;42.50
60495;DHT22;46342;49.046;11.920;2023-05-07T14:27:44;27.60;42.40
60495;DHT22;46342;49.046;11.920;2023-05-07T14:30:10;27.50;42.10
60495;DHT22;46342;49.046;11.920;2023-05-07T14:32:36;27.50;41.90
60495;DHT22;46342;49.046;11.920;2023-05-07T14:35:01;27.50;42.00
60495;DHT22;46342;49.046;11.920;2023-05-07T14:37:27;27.50;41.90
60495;DHT22;46342;49.046;11.920;2023-05-07T14:39:53;27.50;41.80
60495;DHT22;46342;49.046;11.920;2023-05-07T14:42:18;27.50;42.00
60495;DHT22;46342;49.046;11.920;2023-05-07T14:44:44;27.50;41.80
60495;DHT22;46342;49.046;11.920;2023-05-07T14:47:10;27.50;41.30
60495;DHT22;46342;49.046;11.920;2023-05-07T14:49:36;27.40;41.80
60495;DHT22;46342;49.046;11.920;2023-05-07T14:52:01;27.40;40.90
60495;DHT22;46342;49.046;11.920;2023-05-07T14:54:27;27.40;40.90
60495;DHT22;46342;49.046;11.920;2023-05-07T14:56:53;27.30;40.60
60495;DHT22;46342;49.046;11.920;2023-05-07T14:59:19;27.30;40.60
60495;DHT22;46342;49.046;11.920;2023-05-07T15:01:49;27.20;40.70
60495;DHT22;46342;49.046;11.920;2023-05-07T15:04:14;27.30;40.60
60495;DHT22;46342;49.046;11.920;2023-05-07T15:06:40;27.20;41.10
60495;DHT22;46342;49.046;11.920;2023-05-07T15:09:05;27.10;40.90
60495;DHT22;46342;49.046;11.920;2023-05-07T15:11:31;27.10;41.10
60495;DHT22;46342;49.046;11.920;2023-05-07T15:13:57;27.10;41.00
60495;DHT22;46342;49.046;11.920;2023-05-07T15:16:22;27.10;41.10
60495;DHT22;46342;49.046;11.920;2023-05-07T15:18:48;27.10;41.20
60495;DHT22;46342;49.046;11.920;2023-05-07T15:21:14;27.10;41.20
60495;DHT22;46342;49.046;11.920;2023-05-07T15:23:40;27.00;41.20
60495;DHT22;46342;49.046;11.920;2023-05-07T15:26:06;27.00;41.10